createdAt,value
2018-07-11T00:01:18.620Z,9.50
2018-07-11T00:03:53.257Z,11.30
2018-07-11T00:06:24.952Z,8.87
2018-07-11T00:08:55.362Z,9.67
2018-07-11T00:11:25.436Z,11.80
2018-07-11T00:13:55.363Z,13.03
2018-07-11T00:16:25.623Z,10.20
2018-07-11T00:18:55.960Z,11.03
2018-07-11T00:21:26.051Z,17.30
2018-07-11T00:23:56.219Z,11.97
2018-07-11T00:26:26.561Z,14.90
2018-07-11T00:28:56.900Z,9.17
2018-07-11T00:31:27.261Z,14.40
2018-07-11T00:33:57.516Z,14.83
2018-07-11T00:36:27.997Z,14.07
2018-07-11T00:38:58.267Z,16.07
2018-07-11T00:41:28.796Z,15.80
2018-07-11T00:43:59.576Z,9.97
2018-07-11T00:46:29.990Z,10.83
2018-07-11T00:49:00.258Z,11.47
2018-07-11T00:51:30.601Z,10.50
2018-07-11T00:54:01.160Z,9.70
2018-07-11T00:56:31.598Z,10.70
2018-07-11T00:59:12.502Z,11.40
2018-07-11T01:01:43.212Z,19.97
2018-07-11T01:04:13.595Z,10.00
2018-07-11T01:06:44.263Z,13.43
2018-07-11T01:09:14.660Z,10.83
2018-07-11T01:11:45.762Z,11.50
2018-07-11T01:14:16.595Z,10.07
2018-07-11T01:16:47.014Z,13.47
2018-07-11T01:19:18.723Z,12.80
2018-07-11T01:21:59.386Z,13.83
2018-07-11T01:24:30.758Z,10.13
2018-07-11T01:27:02.054Z,10.20
2018-07-11T01:29:32.347Z,11.60
2018-07-11T01:32:02.714Z,11.73
2018-07-11T01:34:32.813Z,9.47
2018-07-11T01:37:03.122Z,11.30
2018-07-11T01:39:33.443Z,12.47
2018-07-11T01:42:03.847Z,11.53
2018-07-11T01:44:35.021Z,10.30
2018-07-11T01:47:05.441Z,12.60
2018-07-11T01:49:36.411Z,9.93
2018-07-11T01:52:23.679Z,12.60
2018-07-11T01:54:53.999Z,10.73
2018-07-11T01:57:24.428Z,14.37
2018-07-11T01:59:54.793Z,9.77
2018-07-11T02:02:27.389Z,11.93
2018-07-11T02:04:57.679Z,13.13
2018-07-11T02:07:28.276Z,10.87
2018-07-11T02:09:58.612Z,9.33
2018-07-11T02:12:28.930Z,10.03
2018-07-11T02:15:06.595Z,9.60
2018-07-11T02:17:38.593Z,9.33
2018-07-11T02:20:14.031Z,8.27
2018-07-11T02:22:44.877Z,8.70
2018-07-11T02:25:16.443Z,10.67
2018-07-11T02:27:46.892Z,10.20
2018-07-11T02:30:17.280Z,11.93
2018-07-11T02:32:47.289Z,10.17
2018-07-11T02:35:17.552Z,10.60
2018-07-11T02:37:48.012Z,11.17
2018-07-11T02:40:18.361Z,16.53
2018-07-11T02:42:48.791Z,11.67
2018-07-11T02:45:19.163Z,13.57
2018-07-11T02:47:49.568Z,10.97
2018-07-11T02:50:19.919Z,11.63
2018-07-11T02:52:50.327Z,10.80
2018-07-11T02:55:20.770Z,12.70
2018-07-11T02:57:51.102Z,16.03
2018-07-11T03:00:21.644Z,12.53
2018-07-11T03:02:51.913Z,11.60
2018-07-11T03:05:23.241Z,13.10
2018-07-11T03:07:53.680Z,13.77
2018-07-11T03:10:24.108Z,11.40
2018-07-11T03:12:54.446Z,12.50
2018-07-11T03:15:24.851Z,11.93
2018-07-11T03:17:55.260Z,12.90
2018-07-11T03:20:25.707Z,13.83
2018-07-11T03:22:56.252Z,11.83
2018-07-11T03:25:26.637Z,20.07
2018-07-11T03:27:56.971Z,13.70
2018-07-11T03:30:27.263Z,12.40
2018-07-11T03:32:57.843Z,14.47
2018-07-11T03:35:28.128Z,14.00
2018-07-11T03:37:58.427Z,14.33
2018-07-11T03:40:28.778Z,16.27
2018-07-11T03:42:59.011Z,12.37
2018-07-11T03:45:29.193Z,14.27
2018-07-11T03:47:59.648Z,15.57
2018-07-11T03:50:30.009Z,17.20
2018-07-11T03:53:01.316Z,17.53
2018-07-11T03:55:31.755Z,16.97
2018-07-11T03:58:02.107Z,14.63
2018-07-11T04:00:32.429Z,23.00
2018-07-11T04:03:02.762Z,18.43
2018-07-11T04:05:33.121Z,15.73
2018-07-11T04:08:03.451Z,15.20
2018-07-11T04:10:33.964Z,16.40
2018-07-11T04:13:04.287Z,13.70
2018-07-11T04:15:34.352Z,13.13
2018-07-11T04:18:04.316Z,14.70
2018-07-11T04:20:34.452Z,14.77
2018-07-11T04:23:05.013Z,12.53
2018-07-11T04:25:35.344Z,14.90
2018-07-11T04:28:05.656Z,14.87
2018-07-11T04:30:36.133Z,13.20
2018-07-11T04:33:06.453Z,11.50
2018-07-11T04:35:36.564Z,18.80
2018-07-11T04:38:07.209Z,12.43
2018-07-11T04:40:37.771Z,11.80
2018-07-11T04:43:08.584Z,14.27
2018-07-11T04:45:38.947Z,13.33
2018-07-11T04:48:09.640Z,14.90
2018-07-11T04:50:40.032Z,12.70
2018-07-11T04:53:11.574Z,12.13
2018-07-11T04:55:43.155Z,14.77
2018-07-11T04:58:13.387Z,11.90
2018-07-11T05:00:43.893Z,13.10
2018-07-11T05:03:14.164Z,11.90
2018-07-11T05:05:44.521Z,15.55
2018-07-11T05:08:14.931Z,15.47
2018-07-11T05:10:45.351Z,12.93
2018-07-11T05:13:15.663Z,12.70
2018-07-11T05:15:46.367Z,13.33
2018-07-11T05:18:16.711Z,12.37
2018-07-11T05:20:47.969Z,12.33
2018-07-11T05:23:18.326Z,17.10
2018-07-11T05:25:48.672Z,14.43
2018-07-11T05:28:19.053Z,12.03
2018-07-11T05:30:49.370Z,15.20
2018-07-11T05:33:19.716Z,16.43
2018-07-11T05:35:50.052Z,13.53
2018-07-11T05:38:20.370Z,18.07
2018-07-11T05:40:50.751Z,16.07
2018-07-11T05:43:21.097Z,10.20
2018-07-11T05:45:51.350Z,18.57
2018-07-11T05:48:24.403Z,13.63
2018-07-11T05:50:54.673Z,12.20
2018-07-11T05:53:25.098Z,12.90
2018-07-11T05:55:55.520Z,16.00
2018-07-11T05:58:25.971Z,23.60
2018-07-11T06:00:56.305Z,15.20
2018-07-11T06:03:26.474Z,12.93
2018-07-11T06:05:56.384Z,13.97
2018-07-11T06:08:26.624Z,11.07
2018-07-11T06:10:56.991Z,12.43
2018-07-11T06:13:27.371Z,12.70
2018-07-11T06:15:57.559Z,15.20
2018-07-11T06:18:28.033Z,16.27
2018-07-11T06:20:58.424Z,13.87
2018-07-11T06:23:28.872Z,11.03
2018-07-11T06:25:59.649Z,11.43
2018-07-11T06:28:30.940Z,11.00
2018-07-11T06:31:02.032Z,14.37
2018-07-11T06:33:32.634Z,9.77
2018-07-11T06:36:02.943Z,11.13
2018-07-11T06:38:33.219Z,9.07
2018-07-11T06:41:03.568Z,6.90
2018-07-11T06:43:33.952Z,8.73
2018-07-11T06:46:04.288Z,9.53
2018-07-11T06:48:34.624Z,9.07
2018-07-11T06:51:05.044Z,13.30
2018-07-11T06:53:35.491Z,8.50
2018-07-11T06:56:05.806Z,9.23
2018-07-11T06:58:36.189Z,11.13
2018-07-11T07:01:06.700Z,8.80
2018-07-11T07:03:37.120Z,12.43
2018-07-11T07:06:07.407Z,9.47
2018-07-11T07:08:37.896Z,10.27
2018-07-11T07:11:08.200Z,10.93
2018-07-11T07:13:38.602Z,9.90
2018-07-11T07:16:08.971Z,9.13
2018-07-11T07:18:39.388Z,8.93
2018-07-11T07:21:09.651Z,12.60
2018-07-11T07:23:40.080Z,7.47
2018-07-11T07:26:10.672Z,8.27
2018-07-11T07:28:41.128Z,5.97
2018-07-11T07:31:11.655Z,6.17
2018-07-11T07:33:42.025Z,7.67
2018-07-11T07:36:12.456Z,8.73
2018-07-11T07:38:44.625Z,6.07
2018-07-11T07:41:14.953Z,4.67
2018-07-11T07:43:45.319Z,6.10
2018-07-11T07:46:16.040Z,6.53
2018-07-11T07:48:46.404Z,2.77
2018-07-11T07:51:16.945Z,2.50
2018-07-11T07:53:47.114Z,2.37
2018-07-11T07:56:17.081Z,2.57
2018-07-11T07:58:47.300Z,2.97
2018-07-11T08:01:17.651Z,2.30
2018-07-11T08:03:49.954Z,2.90
2018-07-11T08:06:20.429Z,3.60
2018-07-11T08:08:50.751Z,4.60
2018-07-11T08:11:21.170Z,3.90
2018-07-11T08:13:51.495Z,3.20
2018-07-11T08:16:21.759Z,3.37
2018-07-11T08:18:52.050Z,4.40
2018-07-11T08:21:22.417Z,4.17
2018-07-11T08:24:09.832Z,4.63
2018-07-11T08:27:03.974Z,4.33
2018-07-11T08:30:47.827Z,3.67
2018-07-11T08:34:02.341Z,7.10
2018-07-11T08:38:49.435Z,5.07
2018-07-11T08:41:32.446Z,3.60
2018-07-11T08:46:22.426Z,3.97
2018-07-11T08:49:09.015Z,5.87
2018-07-11T08:52:24.503Z,3.20
2018-07-11T08:56:27.248Z,3.17
2018-07-11T09:01:30.998Z,2.80
2018-07-11T09:06:35.539Z,3.23
2018-07-11T09:11:23.686Z,2.60
2018-07-11T09:14:23.321Z,3.53
2018-07-11T09:20:09.008Z,2.57
2018-07-11T09:24:53.265Z,2.80
2018-07-11T09:27:23.635Z,2.60
2018-07-11T09:29:53.998Z,3.00
2018-07-11T09:32:24.311Z,3.83
2018-07-11T09:34:54.745Z,3.10
2018-07-11T09:37:25.010Z,2.70
2018-07-11T09:39:55.216Z,2.40
2018-07-11T09:42:25.595Z,2.80
2018-07-11T09:44:55.685Z,2.20
2018-07-11T09:47:28.930Z,4.73
2018-07-11T09:49:59.619Z,2.40
2018-07-11T09:52:29.985Z,1.77
2018-07-11T09:55:00.335Z,2.60
2018-07-11T09:57:30.395Z,1.73
2018-07-11T10:00:00.744Z,1.87
2018-07-11T10:02:31.171Z,7.13
2018-07-11T10:05:01.664Z,3.33
2018-07-11T10:07:32.031Z,2.83
2018-07-11T10:10:02.369Z,2.30
2018-07-11T10:12:33.100Z,7.20
2018-07-11T10:15:03.430Z,8.80
2018-07-11T10:17:34.055Z,2.40
2018-07-11T10:20:04.469Z,2.83
2018-07-11T10:22:34.868Z,2.80
2018-07-11T10:25:05.219Z,2.47
2018-07-11T10:27:35.474Z,2.07
2018-07-11T10:30:05.979Z,2.00
2018-07-11T10:32:36.262Z,3.50
2018-07-11T10:35:06.315Z,1.87
2018-07-11T10:37:36.617Z,2.13
2018-07-11T10:40:07.017Z,1.83
2018-07-11T10:42:37.405Z,1.77
2018-07-11T10:45:07.795Z,1.70
2018-07-11T10:47:38.071Z,2.30
2018-07-11T10:50:08.422Z,2.37
2018-07-11T10:52:38.756Z,2.63
2018-07-11T10:55:08.973Z,2.40
2018-07-11T10:57:39.292Z,2.10
2018-07-11T11:00:09.675Z,1.60
2018-07-11T11:02:40.105Z,1.83
2018-07-11T11:05:10.547Z,3.63
2018-07-11T11:07:41.068Z,2.03
2018-07-11T11:10:11.390Z,2.10
2018-07-11T11:12:41.917Z,1.70
2018-07-11T11:15:12.353Z,1.87
2018-07-11T11:17:42.680Z,1.70
2018-07-11T11:20:12.743Z,1.43
2018-07-11T11:22:42.591Z,1.63
2018-07-11T11:25:12.833Z,1.70
2018-07-11T11:27:43.249Z,2.40
2018-07-11T11:30:13.612Z,1.60
2018-07-11T11:32:43.733Z,1.97
2018-07-11T11:35:14.050Z,2.20
2018-07-11T11:37:44.358Z,2.20
2018-07-11T11:40:14.709Z,1.90
2018-07-11T11:42:45.925Z,2.23
2018-07-11T11:45:16.321Z,6.20
2018-07-11T11:47:46.606Z,3.00
2018-07-11T11:50:16.633Z,2.03
2018-07-11T11:52:47.037Z,2.30
2018-07-11T11:55:17.405Z,2.80
2018-07-11T11:57:47.706Z,1.80
2018-07-11T12:00:17.810Z,3.07
2018-07-11T12:02:48.339Z,1.63
2018-07-11T12:05:19.916Z,7.03
2018-07-11T12:07:50.236Z,1.73
2018-07-11T12:10:20.654Z,1.70
2018-07-11T12:12:51.018Z,1.97
2018-07-11T12:15:21.308Z,1.73
2018-07-11T12:17:51.828Z,1.67
2018-07-11T12:20:22.212Z,3.57
2018-07-11T12:22:52.331Z,1.93
2018-07-11T12:25:22.494Z,1.70
2018-07-11T12:27:52.796Z,1.27
2018-07-11T12:30:23.075Z,1.90
2018-07-11T12:32:53.438Z,1.90
2018-07-11T12:35:23.824Z,1.67
2018-07-11T12:37:54.198Z,1.80
2018-07-11T12:40:24.628Z,1.60
2018-07-11T12:42:54.975Z,1.70
2018-07-11T12:45:25.390Z,1.93
2018-07-11T12:48:00.961Z,1.80
2018-07-11T12:50:31.347Z,1.67
2018-07-11T12:53:01.420Z,2.23
2018-07-11T12:55:31.379Z,1.90
2018-07-11T12:58:01.549Z,1.30
2018-07-11T13:00:31.848Z,1.70
2018-07-11T13:03:01.946Z,2.50
2018-07-11T13:05:32.257Z,3.30
2018-07-11T13:08:02.878Z,3.17
2018-07-11T13:10:33.195Z,1.67
2018-07-11T13:13:03.563Z,2.67
2018-07-11T13:15:33.919Z,2.70
2018-07-11T13:18:04.306Z,2.47
2018-07-11T13:20:34.355Z,2.33
2018-07-11T13:23:04.618Z,2.03
2018-07-11T13:25:34.626Z,2.13
2018-07-11T13:28:04.725Z,2.00
2018-07-11T13:30:35.035Z,4.20
2018-07-11T13:33:05.122Z,2.87
2018-07-11T13:35:35.396Z,1.73
2018-07-11T13:38:05.717Z,2.43
2018-07-11T13:40:36.122Z,3.13
2018-07-11T13:43:06.783Z,2.60
2018-07-11T13:45:37.071Z,2.30
2018-07-11T13:48:07.682Z,2.57
2018-07-11T13:50:37.984Z,2.27
2018-07-11T13:53:08.855Z,2.83
2018-07-11T13:55:39.249Z,2.50
2018-07-11T13:58:09.952Z,2.10
2018-07-11T14:00:40.356Z,4.43
2018-07-11T14:03:10.834Z,2.43
2018-07-11T14:05:41.255Z,2.20
2018-07-11T14:08:11.923Z,1.50
2018-07-11T14:10:42.426Z,1.60
2018-07-11T14:13:12.531Z,5.60
2018-07-11T14:15:42.771Z,3.13
2018-07-11T14:18:13.945Z,2.13
2018-07-11T14:20:44.238Z,2.00
2018-07-11T14:23:14.602Z,2.53
2018-07-11T14:25:44.772Z,3.40
2018-07-11T14:28:15.213Z,2.57
2018-07-11T14:30:46.557Z,2.07
2018-07-11T14:33:16.979Z,11.00
2018-07-11T14:35:47.282Z,2.30
2018-07-11T14:38:17.713Z,2.97
2018-07-11T14:40:48.140Z,3.03
2018-07-11T14:43:18.506Z,2.33
2018-07-11T14:45:48.848Z,2.50
2018-07-11T14:48:19.163Z,2.60
2018-07-11T14:50:49.532Z,2.33
2018-07-11T14:53:19.903Z,3.87
2018-07-11T14:55:50.202Z,2.83
2018-07-11T14:58:20.293Z,2.63
2018-07-11T15:00:50.482Z,2.90
2018-07-11T15:03:20.838Z,1.90
2018-07-11T15:05:51.290Z,2.27
2018-07-11T15:08:21.848Z,2.30
2018-07-11T15:10:52.110Z,2.47
2018-07-11T15:13:23.150Z,2.27
2018-07-11T15:15:53.615Z,5.97
2018-07-11T15:18:23.943Z,3.23
2018-07-11T15:20:54.786Z,2.73
2018-07-11T15:23:25.140Z,2.57
2018-07-11T15:25:55.603Z,2.80
2018-07-11T15:28:26.037Z,2.67
2018-07-11T15:30:56.311Z,4.03
2018-07-11T15:33:27.537Z,2.33
2018-07-11T15:35:58.066Z,2.43
2018-07-11T15:38:28.695Z,2.23
2018-07-11T15:41:00.715Z,2.27
2018-07-11T15:43:31.339Z,2.80
2018-07-11T15:46:01.770Z,2.33
2018-07-11T15:48:32.090Z,2.83
2018-07-11T15:51:02.455Z,2.33
2018-07-11T15:53:33.130Z,2.70
2018-07-11T15:56:03.622Z,2.77
2018-07-11T15:58:38.008Z,2.87
2018-07-11T16:01:11.427Z,2.57
2018-07-11T16:03:46.860Z,2.70
2018-07-11T16:06:18.349Z,3.17
2018-07-11T16:08:50.960Z,3.27
2018-07-11T16:11:21.364Z,2.20
2018-07-11T16:13:51.552Z,2.83
2018-07-11T16:16:21.871Z,3.20
2018-07-11T16:18:52.198Z,2.40
2018-07-11T16:21:22.296Z,2.73
2018-07-11T16:23:52.526Z,2.80
2018-07-11T16:26:22.863Z,6.93
2018-07-11T16:28:53.453Z,2.63
2018-07-11T16:31:23.811Z,2.90
2018-07-11T16:33:54.162Z,2.50
2018-07-11T16:36:24.540Z,7.23
2018-07-11T16:38:55.007Z,2.40
2018-07-11T16:41:25.702Z,2.90
2018-07-11T16:43:55.992Z,3.27
2018-07-11T16:46:26.444Z,2.90
2018-07-11T16:48:56.706Z,2.97
2018-07-11T16:51:27.247Z,3.10
2018-07-11T16:53:57.500Z,2.47
2018-07-11T16:56:27.856Z,3.37
2018-07-11T16:59:01.988Z,2.50
2018-07-11T17:01:43.497Z,3.33
2018-07-11T17:04:15.005Z,2.70
2018-07-11T17:06:45.341Z,2.97
2018-07-11T17:09:15.689Z,3.10
2018-07-11T17:11:47.520Z,2.30
2018-07-11T17:14:18.916Z,2.70
2018-07-11T17:16:57.329Z,2.97
2018-07-11T17:19:40.692Z,2.97
2018-07-11T17:22:11.074Z,2.87
2018-07-11T17:24:47.568Z,2.90
2018-07-11T17:27:21.435Z,3.27
2018-07-11T17:29:54.225Z,2.30
2018-07-11T17:32:24.620Z,2.27
2018-07-11T17:34:55.020Z,2.80
2018-07-11T17:37:29.353Z,2.40
2018-07-11T17:40:06.834Z,3.63
2018-07-11T17:42:37.289Z,3.50
2018-07-11T17:45:17.302Z,3.30
2018-07-11T17:50:15.453Z,3.50
2018-07-11T17:53:55.782Z,3.53
2018-07-11T17:57:00.968Z,4.00
2018-07-11T17:59:42.018Z,3.57
2018-07-11T18:02:35.424Z,4.37
2018-07-11T18:05:22.514Z,3.40
2018-07-11T18:07:53.310Z,3.07
2018-07-11T18:10:53.236Z,3.20
2018-07-11T18:13:56.283Z,3.67
2018-07-11T18:16:41.651Z,4.50
2018-07-11T18:19:27.805Z,4.10
2018-07-11T18:22:15.743Z,4.20
2018-07-11T18:25:06.565Z,3.97
2018-07-11T18:28:51.253Z,4.43
2018-07-11T18:31:36.552Z,3.93
2018-07-11T18:34:23.463Z,3.77
2018-07-11T18:37:25.900Z,3.30
2018-07-11T18:40:01.743Z,3.67
2018-07-11T18:42:46.427Z,3.83
2018-07-11T18:45:33.177Z,4.03
2018-07-11T18:48:32.280Z,4.63
2018-07-11T18:52:23.539Z,7.73
2018-07-11T18:57:11.548Z,4.93
2018-07-11T19:01:04.056Z,4.27
2018-07-11T19:03:39.374Z,4.30
2018-07-11T19:06:32.625Z,4.30
2018-07-11T19:09:09.391Z,5.40
2018-07-11T19:11:55.115Z,4.73
2018-07-11T19:14:38.308Z,9.00
2018-07-11T19:17:22.924Z,5.23
2018-07-11T19:20:33.751Z,4.40
2018-07-11T19:23:28.849Z,5.03
2018-07-11T19:26:18.723Z,6.30
2018-07-11T19:29:02.747Z,4.93
2018-07-11T19:32:49.460Z,5.00
2018-07-11T19:37:49.059Z,5.00
2018-07-11T19:41:00.308Z,4.60
2018-07-11T19:43:48.065Z,4.20
2018-07-11T19:48:35.872Z,5.30
2018-07-11T19:51:20.085Z,4.73
2018-07-11T19:54:07.915Z,3.67
2018-07-11T19:56:45.087Z,3.77
2018-07-11T19:59:15.850Z,3.50
2018-07-11T20:01:47.448Z,4.80
2018-07-11T20:04:17.923Z,3.87
2018-07-11T20:06:48.042Z,4.40
2018-07-11T20:09:18.295Z,5.30
2018-07-11T20:11:48.616Z,4.47
2018-07-11T20:14:19.216Z,5.47
2018-07-11T20:16:49.611Z,4.50
2018-07-11T20:19:20.279Z,4.43
2018-07-11T20:21:50.831Z,4.60
2018-07-11T20:24:21.354Z,6.80
2018-07-11T20:26:51.902Z,4.87
2018-07-11T20:29:22.358Z,5.03
2018-07-11T20:31:52.405Z,4.80
2018-07-11T20:34:22.795Z,4.53
2018-07-11T20:36:53.127Z,4.67
2018-07-11T20:39:23.190Z,4.60
2018-07-11T20:41:53.952Z,5.50
2018-07-11T20:44:24.298Z,3.40
2018-07-11T20:46:54.664Z,7.50
2018-07-11T20:49:30.537Z,10.30
2018-07-11T20:52:00.964Z,4.17
2018-07-11T20:54:31.375Z,4.57
2018-07-11T20:57:01.776Z,6.93
2018-07-11T20:59:43.037Z,4.47
2018-07-11T21:02:30.301Z,4.40
2018-07-11T21:05:58.084Z,4.57
2018-07-11T21:08:43.239Z,4.20
2018-07-11T21:13:32.855Z,5.07
2018-07-11T21:16:18.701Z,8.90
2018-07-11T21:19:07.755Z,8.90
2018-07-11T21:21:39.168Z,5.90
2018-07-11T21:24:10.524Z,6.03
2018-07-11T21:26:40.944Z,6.10
2018-07-11T21:29:11.871Z,5.10
2018-07-11T21:31:42.284Z,6.23
2018-07-11T21:34:12.752Z,5.37
2018-07-11T21:36:43.054Z,6.13
2018-07-11T21:39:14.108Z,5.17
2018-07-11T21:41:44.299Z,5.90
2018-07-11T21:44:14.688Z,5.67
2018-07-11T21:46:45.068Z,5.37
2018-07-11T21:49:19.476Z,5.10
2018-07-11T21:51:50.028Z,5.00
2018-07-11T21:54:20.348Z,5.27
2018-07-11T21:56:50.677Z,5.83
2018-07-11T21:59:20.865Z,6.37
2018-07-11T22:01:51.136Z,5.20
2018-07-11T22:04:21.596Z,5.73
2018-07-11T22:06:52.236Z,6.10
2018-07-11T22:09:22.556Z,6.10
2018-07-11T22:11:53.260Z,6.00
2018-07-11T22:14:23.743Z,6.80
2018-07-11T22:16:53.811Z,12.00
2018-07-11T22:19:33.321Z,8.30
2018-07-11T22:22:02.028Z,7.70
2018-07-11T22:24:30.711Z,9.70
2018-07-11T22:26:59.634Z,11.33
2018-07-11T22:29:28.192Z,11.20
2018-07-11T22:31:56.860Z,10.37
2018-07-11T22:37:00.262Z,12.30
2018-07-11T22:39:28.971Z,11.60
2018-07-11T22:41:57.676Z,12.10
2018-07-11T22:44:26.375Z,12.87
2018-07-11T22:46:55.093Z,12.60
2018-07-11T22:49:23.835Z,12.63
2018-07-11T22:51:52.530Z,10.30
2018-07-11T22:54:21.177Z,9.33
2018-07-11T22:56:49.824Z,10.17
2018-07-11T22:59:18.480Z,9.43
2018-07-11T23:01:47.130Z,9.17
2018-07-11T23:04:15.739Z,8.60
2018-07-11T23:06:45.318Z,11.03
2018-07-11T23:09:13.915Z,8.83
2018-07-11T23:11:42.738Z,8.90
2018-07-11T23:14:11.352Z,8.20
2018-07-11T23:16:39.970Z,8.47
2018-07-11T23:19:09.204Z,7.67
2018-07-11T23:21:37.889Z,11.10
2018-07-11T23:24:06.586Z,8.10
2018-07-11T23:26:35.251Z,8.67
2018-07-11T23:29:04.269Z,7.67
2018-07-11T23:31:32.908Z,9.83
2018-07-11T23:34:01.639Z,8.33
2018-07-11T23:36:30.507Z,9.80
2018-07-11T23:38:59.476Z,8.60
2018-07-11T23:41:28.107Z,13.60
2018-07-11T23:43:56.757Z,12.67
2018-07-11T23:46:25.409Z,13.80
2018-07-11T23:48:54.116Z,10.77
2018-07-11T23:51:22.773Z,10.40
2018-07-11T23:53:51.882Z,12.20
2018-07-11T23:56:21.264Z,10.83
2018-07-11T23:58:49.961Z,10.47
